createdAt,value
2018-09-25T00:00:48.540Z,1031.00
2018-09-25T00:01:48.466Z,1030.97
2018-09-25T00:02:48.385Z,1030.99
2018-09-25T00:03:48.306Z,1030.98
2018-09-25T00:04:48.227Z,1031.00
2018-09-25T00:05:48.161Z,1030.97
2018-09-25T00:06:48.077Z,1030.98
2018-09-25T00:07:47.994Z,1031.01
2018-09-25T00:08:47.914Z,1030.97
2018-09-25T00:09:47.836Z,1031.01
2018-09-25T00:10:47.760Z,1031.07
2018-09-25T00:11:47.681Z,1031.02
2018-09-25T00:12:47.604Z,1031.07
2018-09-25T00:13:47.526Z,1031.08
2018-09-25T00:14:47.451Z,1031.04
2018-09-25T00:15:47.367Z,1031.03
2018-09-25T00:16:47.290Z,1031.02
2018-09-25T00:17:47.214Z,1031.00
2018-09-25T00:18:47.134Z,1031.01
2018-09-25T00:19:47.057Z,1031.00
2018-09-25T00:20:46.981Z,1031.08
2018-09-25T00:21:46.899Z,1031.08
2018-09-25T00:22:46.822Z,1031.08
2018-09-25T00:23:46.745Z,1031.04
2018-09-25T00:24:46.663Z,1031.04
2018-09-25T00:25:46.585Z,1030.99
2018-09-25T00:26:46.509Z,1030.95
2018-09-25T00:27:46.431Z,1030.99
2018-09-25T00:28:46.351Z,1031.01
2018-09-25T00:29:46.277Z,1031.00
2018-09-25T00:30:46.195Z,1030.97
2018-09-25T00:31:46.127Z,1031.03
2018-09-25T00:32:46.044Z,1031.01
2018-09-25T00:33:45.956Z,1031.02
2018-09-25T00:34:45.881Z,1031.01
2018-09-25T00:35:45.801Z,1030.98
2018-09-25T00:36:45.724Z,1031.07
2018-09-25T00:37:45.653Z,1031.07
2018-09-25T00:38:45.572Z,1031.08
2018-09-25T00:39:45.487Z,1031.08
2018-09-25T00:40:45.409Z,1031.08
2018-09-25T00:41:45.338Z,1031.06
2018-09-25T00:42:45.253Z,1031.08
2018-09-25T00:43:45.173Z,1031.05
2018-09-25T00:44:45.100Z,1031.07
2018-09-25T00:45:45.014Z,1031.06
2018-09-25T00:46:44.939Z,1031.08
2018-09-25T00:47:44.862Z,1031.08
2018-09-25T00:48:44.779Z,1031.13
2018-09-25T00:49:44.706Z,1031.13
2018-09-25T00:50:44.626Z,1031.11
2018-09-25T00:51:44.544Z,1031.15
2018-09-25T00:52:44.469Z,1031.11
2018-09-25T00:53:44.390Z,1031.10
2018-09-25T00:54:44.310Z,1031.11
2018-09-25T00:55:44.230Z,1031.11
2018-09-25T00:56:44.153Z,1031.07
2018-09-25T00:57:44.073Z,1031.10
2018-09-25T00:58:43.996Z,1031.10
2018-09-25T00:59:43.918Z,1031.07
2018-09-25T01:00:43.837Z,1031.09
2018-09-25T01:01:43.761Z,1031.09
2018-09-25T01:02:43.682Z,1031.07
2018-09-25T01:03:43.601Z,1031.10
2018-09-25T01:04:43.527Z,1031.05
2018-09-25T01:05:43.446Z,1031.05
2018-09-25T01:06:43.364Z,1031.07
2018-09-25T01:07:43.288Z,1031.10
2018-09-25T01:08:43.210Z,1031.12
2018-09-25T01:09:43.126Z,1031.08
2018-09-25T01:10:43.051Z,1031.11
2018-09-25T01:11:42.972Z,1031.08
2018-09-25T01:12:42.894Z,1031.06
2018-09-25T01:13:42.814Z,1031.09
2018-09-25T01:14:42.735Z,1031.09
2018-09-25T01:15:42.652Z,1031.07
2018-09-25T01:16:42.577Z,1031.07
2018-09-25T01:17:42.501Z,1031.03
2018-09-25T01:18:42.420Z,1031.02
2018-09-25T01:19:42.339Z,1031.07
2018-09-25T01:20:42.266Z,1031.10
2018-09-25T01:21:42.183Z,1031.11
2018-09-25T01:22:42.105Z,1031.14
2018-09-25T01:23:42.027Z,1031.11
2018-09-25T01:24:41.944Z,1031.15
2018-09-25T01:25:41.867Z,1031.20
2018-09-25T01:26:41.792Z,1031.13
2018-09-25T01:27:41.710Z,1031.17
2018-09-25T01:28:41.633Z,1031.15
2018-09-25T01:29:41.557Z,1031.14
2018-09-25T01:30:41.473Z,1031.20
2018-09-25T01:31:41.393Z,1031.14
2018-09-25T01:32:41.318Z,1031.19
2018-09-25T01:33:41.235Z,1031.18
2018-09-25T01:34:41.159Z,1031.16
2018-09-25T01:35:41.087Z,1031.20
2018-09-25T01:36:41.001Z,1031.18
2018-09-25T01:37:40.922Z,1031.20
2018-09-25T01:38:40.844Z,1031.20
2018-09-25T01:39:40.762Z,1031.23
2018-09-25T01:40:40.689Z,1031.26
2018-09-25T01:41:40.607Z,1031.25
2018-09-25T01:42:40.525Z,1031.26
2018-09-25T01:43:40.449Z,1031.27
2018-09-25T01:44:40.371Z,1031.29
2018-09-25T01:45:40.284Z,1031.27
2018-09-25T01:46:40.212Z,1031.29
2018-09-25T01:47:40.132Z,1031.30
2018-09-25T01:48:40.055Z,1031.30
2018-09-25T01:49:39.975Z,1031.29
2018-09-25T01:50:39.900Z,1031.29
2018-09-25T01:51:39.815Z,1031.29
2018-09-25T01:52:39.738Z,1031.29
2018-09-25T01:53:39.660Z,1031.30
2018-09-25T01:54:39.581Z,1031.25
2018-09-25T01:55:39.507Z,1031.28
2018-09-25T01:56:39.427Z,1031.31
2018-09-25T01:57:39.342Z,1031.27
2018-09-25T01:58:39.264Z,1031.29
2018-09-25T01:59:39.184Z,1031.28
2018-09-25T02:00:39.107Z,1031.32
2018-09-25T02:01:39.024Z,1031.32
2018-09-25T02:02:38.949Z,1031.32
2018-09-25T02:03:38.872Z,1031.29
2018-09-25T02:04:38.789Z,1031.30
2018-09-25T02:05:38.754Z,1031.29
2018-09-25T02:06:38.634Z,1031.29
2018-09-25T02:07:38.550Z,1031.30
2018-09-25T02:08:38.481Z,1031.32
2018-09-25T02:09:38.397Z,1031.31
2018-09-25T02:10:38.316Z,1031.34
2018-09-25T02:11:38.237Z,1031.30
2018-09-25T02:12:38.159Z,1031.26
2018-09-25T02:13:38.077Z,1031.31
2018-09-25T02:14:38.000Z,1031.33
2018-09-25T02:15:37.920Z,1031.34
2018-09-25T02:16:37.840Z,1031.32
2018-09-25T02:17:37.763Z,1031.28
2018-09-25T02:18:37.683Z,1031.33
2018-09-25T02:19:37.602Z,1031.30
2018-09-25T02:20:37.527Z,1031.32
2018-09-25T02:21:37.448Z,1031.31
2018-09-25T02:22:37.367Z,1031.27
2018-09-25T02:23:37.292Z,1031.26
2018-09-25T02:24:37.208Z,1031.28
2018-09-25T02:25:37.129Z,1031.29
2018-09-25T02:26:37.051Z,1031.29
2018-09-25T02:27:36.972Z,1031.29
2018-09-25T02:28:36.889Z,1031.29
2018-09-25T02:29:36.819Z,1031.25
2018-09-25T02:30:36.735Z,1031.24
2018-09-25T02:31:36.653Z,1031.28
2018-09-25T02:32:36.578Z,1031.26
2018-09-25T02:33:36.497Z,1031.26
2018-09-25T02:34:36.416Z,1031.29
2018-09-25T02:35:36.338Z,1031.30
2018-09-25T02:36:36.265Z,1031.25
2018-09-25T02:37:36.179Z,1031.26
2018-09-25T02:38:36.105Z,1031.30
2018-09-25T02:39:36.023Z,1031.28
2018-09-25T02:40:35.941Z,1031.32
2018-09-25T02:41:35.862Z,1031.28
2018-09-25T02:42:35.792Z,1031.31
2018-09-25T02:43:35.723Z,1031.32
2018-09-25T02:44:35.625Z,1031.30
2018-09-25T02:45:35.552Z,1031.33
2018-09-25T02:46:35.468Z,1031.33
2018-09-25T02:47:35.385Z,1031.33
2018-09-25T02:48:35.310Z,1031.26
2018-09-25T02:49:35.230Z,1031.29
2018-09-25T02:50:35.151Z,1031.29
2018-09-25T02:51:35.072Z,1031.33
2018-09-25T02:52:35.009Z,1031.36
2018-09-25T02:53:34.912Z,1031.32
2018-09-25T02:54:34.834Z,1031.35
2018-09-25T02:55:34.756Z,1031.36
2018-09-25T02:56:34.673Z,1031.39
2018-09-25T02:57:34.591Z,1031.37
2018-09-25T02:58:34.534Z,1031.32
2018-09-25T02:59:34.432Z,1031.36
2018-09-25T03:00:34.361Z,1031.38
2018-09-25T03:01:34.281Z,1031.40
2018-09-25T03:02:34.199Z,1031.33
2018-09-25T03:03:34.119Z,1031.32
2018-09-25T03:04:34.039Z,1031.35
2018-09-25T03:05:33.963Z,1031.37
2018-09-25T03:06:33.881Z,1031.35
2018-09-25T03:07:33.801Z,1031.37
2018-09-25T03:08:33.722Z,1031.38
2018-09-25T03:09:33.642Z,1031.34
2018-09-25T03:10:33.573Z,1031.36
2018-09-25T03:11:33.480Z,1031.40
2018-09-25T03:12:33.403Z,1031.40
2018-09-25T03:13:33.320Z,1031.37
2018-09-25T03:14:33.246Z,1031.34
2018-09-25T03:15:33.167Z,1031.33
2018-09-25T03:16:33.087Z,1031.32
2018-09-25T03:17:33.002Z,1031.31
2018-09-25T03:18:32.926Z,1031.31
2018-09-25T03:19:32.847Z,1031.35
2018-09-25T03:20:32.770Z,1031.35
2018-09-25T03:21:32.709Z,1031.29
2018-09-25T03:22:32.608Z,1031.31
2018-09-25T03:23:32.535Z,1031.31
2018-09-25T03:24:32.450Z,1031.31
2018-09-25T03:25:32.375Z,1031.33
2018-09-25T03:26:32.293Z,1031.31
2018-09-25T03:27:32.212Z,1031.29
2018-09-25T03:28:32.131Z,1031.28
2018-09-25T03:29:32.051Z,1031.23
2018-09-25T03:30:31.974Z,1031.26
2018-09-25T03:31:31.892Z,1031.29
2018-09-25T03:32:31.814Z,1031.23
2018-09-25T03:33:31.732Z,1031.24
2018-09-25T03:34:31.653Z,1031.23
2018-09-25T03:35:31.581Z,1031.21
2018-09-25T03:36:31.492Z,1031.20
2018-09-25T03:37:31.414Z,1031.20
2018-09-25T03:38:31.340Z,1031.17
2018-09-25T03:39:31.252Z,1031.16
2018-09-25T03:40:31.175Z,1031.16
2018-09-25T03:41:31.095Z,1031.17
2018-09-25T03:42:31.014Z,1031.22
2018-09-25T03:43:30.933Z,1031.21
2018-09-25T03:44:30.855Z,1031.21
2018-09-25T03:45:30.781Z,1031.21
2018-09-25T03:46:30.706Z,1031.21
2018-09-25T03:47:30.616Z,1031.23
2018-09-25T03:48:30.530Z,1031.24
2018-09-25T03:49:30.456Z,1031.26
2018-09-25T03:50:30.377Z,1031.25
2018-09-25T03:51:30.296Z,1031.22
2018-09-25T03:52:30.218Z,1031.25
2018-09-25T03:53:30.137Z,1031.24
2018-09-25T03:54:30.057Z,1031.26
2018-09-25T03:55:29.976Z,1031.26
2018-09-25T03:56:29.897Z,1031.32
2018-09-25T03:57:29.821Z,1031.28
2018-09-25T03:58:29.738Z,1031.28
2018-09-25T03:59:29.686Z,1031.30
2018-09-25T04:00:29.578Z,1031.28
2018-09-25T04:01:29.498Z,1031.25
2018-09-25T04:02:29.418Z,1031.28
2018-09-25T04:03:29.342Z,1031.29
2018-09-25T04:04:29.259Z,1031.28
2018-09-25T04:05:29.184Z,1031.27
2018-09-25T04:06:29.102Z,1031.34
2018-09-25T04:07:29.017Z,1031.31
2018-09-25T04:08:28.939Z,1031.32
2018-09-25T04:09:28.858Z,1031.31
2018-09-25T04:10:28.776Z,1031.28
2018-09-25T04:11:28.698Z,1031.33
2018-09-25T04:12:28.614Z,1031.31
2018-09-25T04:13:28.539Z,1031.33
2018-09-25T04:14:28.461Z,1031.33
2018-09-25T04:15:28.381Z,1031.35
2018-09-25T04:16:28.299Z,1031.36
2018-09-25T04:17:28.217Z,1031.37
2018-09-25T04:18:28.141Z,1031.37
2018-09-25T04:19:28.060Z,1031.41
2018-09-25T04:20:27.977Z,1031.38
2018-09-25T04:21:27.896Z,1031.38
2018-09-25T04:22:27.819Z,1031.37
2018-09-25T04:23:27.739Z,1031.38
2018-09-25T04:24:27.661Z,1031.37
2018-09-25T04:25:27.580Z,1031.41
2018-09-25T04:26:27.496Z,1031.43
2018-09-25T04:27:27.416Z,1031.39
2018-09-25T04:28:27.429Z,1031.37
2018-09-25T04:29:27.265Z,1031.38
2018-09-25T04:30:27.177Z,1031.42
2018-09-25T04:31:27.097Z,1031.40
2018-09-25T04:32:27.017Z,1031.40
2018-09-25T04:33:26.938Z,1031.45
2018-09-25T04:34:26.866Z,1031.44
2018-09-25T04:35:26.775Z,1031.44
2018-09-25T04:36:26.697Z,1031.43
2018-09-25T04:37:26.615Z,1031.49
2018-09-25T04:38:26.536Z,1031.45
2018-09-25T04:39:26.458Z,1031.45
2018-09-25T04:40:26.379Z,1031.49
2018-09-25T04:41:26.299Z,1031.48
2018-09-25T04:42:26.215Z,1031.49
2018-09-25T04:43:26.134Z,1031.50
2018-09-25T04:44:26.057Z,1031.51
2018-09-25T04:45:25.976Z,1031.47
2018-09-25T04:46:25.893Z,1031.51
2018-09-25T04:47:25.815Z,1031.49
2018-09-25T04:48:25.733Z,1031.51
2018-09-25T04:49:25.656Z,1031.53
2018-09-25T04:50:25.574Z,1031.52
2018-09-25T04:51:25.492Z,1031.56
2018-09-25T04:52:25.416Z,1031.53
2018-09-25T04:53:25.337Z,1031.59
2018-09-25T04:54:25.251Z,1031.58
2018-09-25T04:55:25.173Z,1031.53
2018-09-25T04:56:25.091Z,1031.53
2018-09-25T04:57:25.014Z,1031.59
2018-09-25T04:58:24.928Z,1031.62
2018-09-25T04:59:24.852Z,1031.61
2018-09-25T05:00:24.772Z,1031.65
2018-09-25T05:01:24.692Z,1031.64
2018-09-25T05:02:24.613Z,1031.66
2018-09-25T05:03:24.529Z,1031.69
2018-09-25T05:04:24.451Z,1031.69
2018-09-25T05:05:24.371Z,1031.72
2018-09-25T05:06:24.294Z,1031.75
2018-09-25T05:07:24.208Z,1031.79
2018-09-25T05:08:24.130Z,1031.76
2018-09-25T05:09:24.064Z,1031.71
2018-09-25T05:10:23.974Z,1031.74
2018-09-25T05:11:23.889Z,1031.77
2018-09-25T05:12:23.807Z,1031.81
2018-09-25T05:13:23.727Z,1031.76
2018-09-25T05:14:23.653Z,1031.77
2018-09-25T05:15:23.573Z,1031.81
2018-09-25T05:16:23.488Z,1031.78
2018-09-25T05:17:23.408Z,1031.78
2018-09-25T05:18:23.327Z,1031.81
2018-09-25T05:19:23.251Z,1031.83
2018-09-25T05:20:23.164Z,1031.84
2018-09-25T05:21:23.088Z,1031.83
2018-09-25T05:22:23.007Z,1031.84
2018-09-25T05:23:22.955Z,1031.86
2018-09-25T05:24:22.847Z,1031.94
2018-09-25T05:25:22.765Z,1031.93
2018-09-25T05:26:22.686Z,1031.96
2018-09-25T05:27:22.602Z,1031.98
2018-09-25T05:28:22.523Z,1031.91
2018-09-25T05:29:22.442Z,1031.94
2018-09-25T05:30:22.364Z,1031.92
2018-09-25T05:31:22.282Z,1031.92
2018-09-25T05:32:22.204Z,1031.91
2018-09-25T05:33:22.117Z,1031.98
2018-09-25T05:34:22.041Z,1031.99
2018-09-25T05:35:21.961Z,1032.04
2018-09-25T05:36:21.894Z,1031.98
2018-09-25T05:37:21.801Z,1032.00
2018-09-25T05:38:21.742Z,1031.99
2018-09-25T05:39:21.675Z,1032.03
2018-09-25T05:40:21.558Z,1032.02
2018-09-25T05:41:21.477Z,1032.05
2018-09-25T05:42:21.399Z,1032.03
2018-09-25T05:43:21.314Z,1032.02
2018-09-25T05:44:21.236Z,1032.06
2018-09-25T05:45:21.156Z,1032.03
2018-09-25T05:46:21.083Z,1032.06
2018-09-25T05:47:20.993Z,1032.05
2018-09-25T05:48:20.984Z,1032.08
2018-09-25T05:49:20.831Z,1032.10
2018-09-25T05:50:20.752Z,1032.12
2018-09-25T05:51:20.676Z,1032.19
2018-09-25T05:52:20.592Z,1032.20
2018-09-25T05:53:20.510Z,1032.18
2018-09-25T05:54:20.433Z,1032.18
2018-09-25T05:55:20.349Z,1032.17
2018-09-25T05:56:20.275Z,1032.16
2018-09-25T05:57:20.191Z,1032.22
2018-09-25T05:58:20.113Z,1032.17
2018-09-25T05:59:20.035Z,1032.15
2018-09-25T06:00:19.951Z,1032.18
2018-09-25T06:01:19.869Z,1032.17
2018-09-25T06:02:19.790Z,1032.15
2018-09-25T06:03:19.709Z,1032.20
2018-09-25T06:04:19.626Z,1032.24
2018-09-25T06:05:19.584Z,1032.24
2018-09-25T06:06:19.467Z,1032.24
2018-09-25T06:07:19.383Z,1032.17
2018-09-25T06:08:19.308Z,1032.20
2018-09-25T06:09:19.295Z,1032.17
2018-09-25T06:10:19.144Z,1032.17
2018-09-25T06:11:19.064Z,1032.15
2018-09-25T06:12:18.985Z,1032.10
2018-09-25T06:13:18.902Z,1032.09
2018-09-25T06:14:18.823Z,1032.15
2018-09-25T06:15:18.741Z,1032.13
2018-09-25T06:16:18.662Z,1032.13
2018-09-25T06:17:18.582Z,1032.18
2018-09-25T06:18:18.507Z,1032.20
2018-09-25T06:19:18.421Z,1032.25
2018-09-25T06:20:18.337Z,1032.22
2018-09-25T06:21:18.270Z,1032.26
2018-09-25T06:22:18.183Z,1032.25
2018-09-25T06:23:18.103Z,1032.21
2018-09-25T06:24:18.019Z,1032.27
2018-09-25T06:25:17.938Z,1032.30
2018-09-25T06:26:17.860Z,1032.26
2018-09-25T06:27:17.777Z,1032.32
2018-09-25T06:28:17.696Z,1032.34
2018-09-25T06:29:17.615Z,1032.33
2018-09-25T06:30:17.538Z,1032.38
2018-09-25T06:31:17.456Z,1032.39
2018-09-25T06:32:17.375Z,1032.38
2018-09-25T06:33:17.296Z,1032.39
2018-09-25T06:34:17.217Z,1032.36
2018-09-25T06:35:17.133Z,1032.40
2018-09-25T06:36:17.059Z,1032.41
2018-09-25T06:37:17.021Z,1032.37
2018-09-25T06:38:16.896Z,1032.38
2018-09-25T06:39:16.813Z,1032.44
2018-09-25T06:40:16.738Z,1032.39
2018-09-25T06:41:16.654Z,1032.39
2018-09-25T06:42:16.574Z,1032.40
2018-09-25T06:43:16.491Z,1032.44
2018-09-25T06:44:16.417Z,1032.45
2018-09-25T06:45:16.333Z,1032.42
2018-09-25T06:46:16.266Z,1032.37
2018-09-25T06:47:16.233Z,1032.37
2018-09-25T06:48:16.094Z,1032.36
2018-09-25T06:49:16.013Z,1032.38
2018-09-25T06:50:15.932Z,1032.38
2018-09-25T06:51:15.850Z,1032.35
2018-09-25T06:52:15.776Z,1032.39
2018-09-25T06:53:15.691Z,1032.45
2018-09-25T06:54:15.613Z,1032.44
2018-09-25T06:55:15.558Z,1032.47
2018-09-25T06:56:15.452Z,1032.50
2018-09-25T06:57:15.372Z,1032.48
2018-09-25T06:58:15.292Z,1032.54
2018-09-25T06:59:15.210Z,1032.52
2018-09-25T07:00:15.132Z,1032.49
2018-09-25T07:01:15.051Z,1032.50
2018-09-25T07:02:14.975Z,1032.54
2018-09-25T07:03:14.891Z,1032.55
2018-09-25T07:04:14.813Z,1032.53
2018-09-25T07:05:14.733Z,1032.57
2018-09-25T07:06:14.651Z,1032.57
2018-09-25T07:07:14.571Z,1032.59
2018-09-25T07:08:14.495Z,1032.61
2018-09-25T07:09:14.413Z,1032.63
2018-09-25T07:10:14.507Z,1032.64
2018-09-25T07:11:14.251Z,1032.63
2018-09-25T07:12:14.173Z,1032.62
2018-09-25T07:13:14.093Z,1032.61
2018-09-25T07:14:14.017Z,1032.65
2018-09-25T07:15:13.935Z,1032.63
2018-09-25T07:16:13.855Z,1032.65
2018-09-25T07:17:13.778Z,1032.65
2018-09-25T07:18:13.695Z,1032.68
2018-09-25T07:19:13.614Z,1032.69
2018-09-25T07:20:13.539Z,1032.69
2018-09-25T07:21:13.455Z,1032.72
2018-09-25T07:22:13.378Z,1032.71
2018-09-25T07:23:13.295Z,1032.74
2018-09-25T07:24:13.216Z,1032.77
2018-09-25T07:25:13.224Z,1032.72
2018-09-25T07:26:13.060Z,1032.78
2018-09-25T07:27:12.984Z,1032.79
2018-09-25T07:28:12.900Z,1032.81
2018-09-25T07:29:12.821Z,1032.80
2018-09-25T07:30:12.742Z,1032.86
2018-09-25T07:31:12.657Z,1032.84
2018-09-25T07:32:12.581Z,1032.83
2018-09-25T07:33:12.502Z,1032.83
2018-09-25T07:34:12.423Z,1032.91
2018-09-25T07:35:12.342Z,1032.89
2018-09-25T07:36:12.270Z,1032.91
2018-09-25T07:37:12.186Z,1032.95
2018-09-25T07:38:12.102Z,1032.97
2018-09-25T07:39:12.025Z,1033.00
2018-09-25T07:40:11.950Z,1032.92
2018-09-25T07:41:11.866Z,1033.00
2018-09-25T07:42:11.787Z,1033.00
2018-09-25T07:43:11.722Z,1032.98
2018-09-25T07:44:11.625Z,1033.03
2018-09-25T07:45:11.550Z,1033.05
2018-09-25T07:46:11.468Z,1033.07
2018-09-25T07:47:11.389Z,1033.05
2018-09-25T07:48:11.366Z,1033.06
2018-09-25T07:49:11.239Z,1033.07
2018-09-25T07:50:11.150Z,1033.07
2018-09-25T07:51:11.069Z,1033.07
2018-09-25T07:52:10.995Z,1033.10
2018-09-25T07:53:10.913Z,1033.11
2018-09-25T07:54:10.853Z,1033.10
2018-09-25T07:55:10.756Z,1033.11
2018-09-25T07:56:10.673Z,1033.09
2018-09-25T07:57:10.594Z,1033.09
2018-09-25T07:58:10.520Z,1033.14
2018-09-25T07:59:10.444Z,1033.12
2018-09-25T08:00:10.361Z,1033.13
2018-09-25T08:01:10.286Z,1033.15
2018-09-25T08:02:10.203Z,1033.12
2018-09-25T08:03:10.163Z,1033.18
2018-09-25T08:04:10.047Z,1033.17
2018-09-25T08:05:09.969Z,1033.18
2018-09-25T08:06:09.890Z,1033.18
2018-09-25T08:07:09.809Z,1033.19
2018-09-25T08:08:09.736Z,1033.21
2018-09-25T08:09:09.686Z,1033.23
2018-09-25T08:10:09.575Z,1033.22
2018-09-25T08:11:09.495Z,1033.19
2018-09-25T08:12:09.418Z,1033.21
2018-09-25T08:13:09.339Z,1033.21
2018-09-25T08:14:09.261Z,1033.20
2018-09-25T08:15:09.181Z,1033.25
2018-09-25T08:16:09.108Z,1033.26
2018-09-25T08:17:09.027Z,1033.22
2018-09-25T08:18:08.950Z,1033.26
2018-09-25T08:19:08.868Z,1033.29
2018-09-25T08:20:08.789Z,1033.33
2018-09-25T08:21:08.712Z,1033.25
2018-09-25T08:22:08.640Z,1033.25
2018-09-25T08:23:08.559Z,1033.27
2018-09-25T08:24:08.477Z,1033.28
2018-09-25T08:25:08.403Z,1033.28
2018-09-25T08:26:08.323Z,1033.29
2018-09-25T08:27:08.245Z,1033.33
2018-09-25T08:28:08.174Z,1033.35
2018-09-25T08:29:08.090Z,1033.32
2018-09-25T08:30:08.011Z,1033.35
2018-09-25T08:31:07.944Z,1033.31
2018-09-25T08:32:07.853Z,1033.36
2018-09-25T08:33:07.786Z,1033.33
2018-09-25T08:34:07.699Z,1033.33
2018-09-25T08:35:07.625Z,1033.30
2018-09-25T08:36:07.544Z,1033.28
2018-09-25T08:37:07.470Z,1033.32
2018-09-25T08:38:07.389Z,1033.32
2018-09-25T08:39:07.370Z,1033.33
2018-09-25T08:40:07.234Z,1033.37
2018-09-25T08:41:07.159Z,1033.38
2018-09-25T08:42:07.082Z,1033.36
2018-09-25T08:43:07.000Z,1033.40
2018-09-25T08:44:06.924Z,1033.41
2018-09-25T08:45:06.849Z,1033.44
2018-09-25T08:46:06.772Z,1033.46
2018-09-25T08:47:06.693Z,1033.52
2018-09-25T08:48:06.615Z,1033.51
2018-09-25T08:49:06.541Z,1033.53
2018-09-25T08:50:06.464Z,1033.56
2018-09-25T08:51:06.386Z,1033.55
2018-09-25T08:52:06.311Z,1033.59
2018-09-25T08:53:06.236Z,1033.54
2018-09-25T08:54:06.157Z,1033.61
2018-09-25T08:55:06.083Z,1033.58
2018-09-25T08:56:06.006Z,1033.64
2018-09-25T08:57:05.926Z,1033.65
2018-09-25T08:58:05.852Z,1033.65
2018-09-25T08:59:05.777Z,1033.70
2018-09-25T09:00:05.698Z,1033.65
2018-09-25T09:01:05.686Z,1033.63
2018-09-25T09:02:05.547Z,1033.65
2018-09-25T09:03:05.470Z,1033.67
2018-09-25T09:04:05.395Z,1033.68
2018-09-25T09:05:05.320Z,1033.69
2018-09-25T09:06:05.245Z,1033.67
2018-09-25T09:07:05.169Z,1033.63
2018-09-25T09:08:05.096Z,1033.64
2018-09-25T09:09:05.019Z,1033.69
2018-09-25T09:10:04.948Z,1033.66
2018-09-25T09:11:04.869Z,1033.66
2018-09-25T09:12:04.796Z,1033.67
2018-09-25T09:13:04.724Z,1033.64
2018-09-25T09:14:04.683Z,1033.67
2018-09-25T09:15:04.571Z,1033.65
2018-09-25T09:16:04.496Z,1033.68
2018-09-25T09:17:04.421Z,1033.67
2018-09-25T09:18:04.350Z,1033.65
2018-09-25T09:19:04.281Z,1033.64
2018-09-25T09:20:04.238Z,1033.65
2018-09-25T09:21:04.133Z,1033.62
2018-09-25T09:22:04.051Z,1033.67
2018-09-25T09:23:03.974Z,1033.67
2018-09-25T09:24:03.903Z,1033.66
2018-09-25T09:25:03.887Z,1033.64
2018-09-25T09:26:03.757Z,1033.63
2018-09-25T09:27:03.683Z,1033.63
2018-09-25T09:28:03.608Z,1033.64
2018-09-25T09:29:03.535Z,1033.60
2018-09-25T09:30:03.469Z,1033.62
2018-09-25T09:31:03.391Z,1033.61
2018-09-25T09:32:03.319Z,1033.59
2018-09-25T09:33:03.240Z,1033.59
2018-09-25T09:34:03.172Z,1033.61
2018-09-25T09:35:03.096Z,1033.63
2018-09-25T09:36:03.023Z,1033.58
2018-09-25T09:37:02.949Z,1033.61
2018-09-25T09:38:02.879Z,1033.59
2018-09-25T09:39:02.800Z,1033.55
2018-09-25T09:40:02.731Z,1033.60
2018-09-25T09:41:02.698Z,1033.61
2018-09-25T09:42:02.753Z,1033.61
2018-09-25T09:43:02.513Z,1033.62
2018-09-25T09:44:02.441Z,1033.59
2018-09-25T09:45:02.369Z,1033.60
2018-09-25T09:46:02.295Z,1033.59
2018-09-25T09:47:02.225Z,1033.58
2018-09-25T09:48:02.150Z,1033.56
2018-09-25T09:49:02.079Z,1033.55
2018-09-25T09:50:02.006Z,1033.56
2018-09-25T09:51:01.929Z,1033.51
2018-09-25T09:52:01.864Z,1033.48
2018-09-25T09:53:01.789Z,1033.45
2018-09-25T09:54:01.719Z,1033.43
2018-09-25T09:55:01.644Z,1033.46
2018-09-25T09:56:01.572Z,1033.46
2018-09-25T09:57:01.498Z,1033.48
2018-09-25T09:58:01.423Z,1033.44
2018-09-25T09:59:01.361Z,1033.45
2018-09-25T10:00:01.282Z,1033.45
2018-09-25T10:01:01.212Z,1033.42
2018-09-25T10:02:01.139Z,1033.44
2018-09-25T10:03:01.062Z,1033.39
2018-09-25T10:04:00.994Z,1033.38
2018-09-25T10:05:00.927Z,1033.41
2018-09-25T10:06:00.850Z,1033.35
2018-09-25T10:07:00.799Z,1033.38
2018-09-25T10:08:00.712Z,1033.38
2018-09-25T10:09:00.632Z,1033.41
2018-09-25T10:10:00.559Z,1033.36
2018-09-25T10:11:00.489Z,1033.33
2018-09-25T10:12:00.417Z,1033.33
2018-09-25T10:13:00.343Z,1033.34
2018-09-25T10:14:00.273Z,1033.35
2018-09-25T10:15:00.199Z,1033.33
2018-09-25T10:16:00.127Z,1033.30
2018-09-25T10:17:00.054Z,1033.31
2018-09-25T10:17:59.987Z,1033.27
2018-09-25T10:18:59.954Z,1033.28
2018-09-25T10:19:59.837Z,1033.28
2018-09-25T10:20:59.764Z,1033.30
2018-09-25T10:21:59.696Z,1033.24
2018-09-25T10:22:59.644Z,1033.27
2018-09-25T10:23:59.547Z,1033.22
2018-09-25T10:24:59.481Z,1033.23
2018-09-25T10:25:59.407Z,1033.29
2018-09-25T10:26:59.328Z,1033.25
2018-09-25T10:27:59.259Z,1033.28
2018-09-25T10:28:59.190Z,1033.24
2018-09-25T10:29:59.116Z,1033.22
2018-09-25T10:30:59.040Z,1033.22
2018-09-25T10:31:58.966Z,1033.28
2018-09-25T10:32:58.894Z,1033.24
2018-09-25T10:33:58.827Z,1033.25
2018-09-25T10:34:58.747Z,1033.27
2018-09-25T10:35:58.673Z,1033.28
2018-09-25T10:36:58.601Z,1033.22
2018-09-25T10:37:58.532Z,1033.25
2018-09-25T10:38:58.456Z,1033.26
2018-09-25T10:39:58.381Z,1033.22
2018-09-25T10:40:58.328Z,1033.23
2018-09-25T10:41:58.236Z,1033.22
2018-09-25T10:42:58.167Z,1033.24
2018-09-25T10:43:58.088Z,1033.19
2018-09-25T10:44:58.015Z,1033.17
2018-09-25T10:45:57.945Z,1033.20
2018-09-25T10:46:57.872Z,1033.17
2018-09-25T10:47:57.795Z,1033.18
2018-09-25T10:48:57.721Z,1033.17
2018-09-25T10:49:57.658Z,1033.20
2018-09-25T10:50:57.577Z,1033.20
2018-09-25T10:51:57.501Z,1033.16
2018-09-25T10:52:57.427Z,1033.18
2018-09-25T10:53:57.360Z,1033.19
2018-09-25T10:54:57.284Z,1033.17
2018-09-25T10:55:57.318Z,1033.15
2018-09-25T10:56:57.138Z,1033.13
2018-09-25T10:57:57.066Z,1033.22
2018-09-25T10:58:56.988Z,1033.20
2018-09-25T10:59:56.914Z,1033.22
2018-09-25T11:00:56.846Z,1033.19
2018-09-25T11:01:56.770Z,1033.26
2018-09-25T11:02:56.828Z,1033.20
2018-09-25T11:03:56.623Z,1033.17
2018-09-25T11:04:56.550Z,1033.14
2018-09-25T11:05:56.476Z,1033.17
2018-09-25T11:06:56.407Z,1033.18
2018-09-25T11:07:56.330Z,1033.16
2018-09-25T11:08:56.256Z,1033.20
2018-09-25T11:09:56.232Z,1033.24
2018-09-25T11:10:56.111Z,1033.27
2018-09-25T11:11:56.041Z,1033.28
2018-09-25T11:12:55.967Z,1033.23
2018-09-25T11:13:55.892Z,1033.23
2018-09-25T11:14:55.827Z,1033.21
2018-09-25T11:15:55.750Z,1033.19
2018-09-25T11:16:55.673Z,1033.20
2018-09-25T11:17:55.600Z,1033.16
2018-09-25T11:18:55.527Z,1033.20
2018-09-25T11:19:55.455Z,1033.18
2018-09-25T11:20:55.384Z,1033.20
2018-09-25T11:21:55.312Z,1033.22
2018-09-25T11:22:55.240Z,1033.23
2018-09-25T11:23:55.167Z,1033.19
2018-09-25T11:24:55.091Z,1033.22
2018-09-25T11:25:55.021Z,1033.22
2018-09-25T11:26:54.949Z,1033.22
2018-09-25T11:27:54.874Z,1033.18
2018-09-25T11:28:54.804Z,1033.20
2018-09-25T11:29:54.732Z,1033.17
2018-09-25T11:30:54.658Z,1033.18
2018-09-25T11:31:54.586Z,1033.20
2018-09-25T11:32:54.519Z,1033.23
2018-09-25T11:33:54.443Z,1033.17
2018-09-25T11:34:54.377Z,1033.10
2018-09-25T11:35:54.297Z,1033.15
2018-09-25T11:36:54.226Z,1033.15
2018-09-25T11:37:54.153Z,1033.18
2018-09-25T11:38:54.081Z,1033.18
2018-09-25T11:39:54.009Z,1033.13
2018-09-25T11:40:53.962Z,1033.15
2018-09-25T11:41:53.872Z,1033.15
2018-09-25T11:42:53.793Z,1033.15
2018-09-25T11:43:53.721Z,1033.10
2018-09-25T11:44:53.650Z,1033.11
2018-09-25T11:45:53.629Z,1033.13
2018-09-25T11:46:53.590Z,1033.11
2018-09-25T11:47:53.439Z,1033.11
2018-09-25T11:48:53.370Z,1033.03
2018-09-25T11:49:53.302Z,1033.04
2018-09-25T11:50:53.220Z,1033.10
2018-09-25T11:51:53.149Z,1033.03
2018-09-25T11:52:53.104Z,1033.04
2018-09-25T11:53:53.007Z,1033.03
2018-09-25T11:54:52.939Z,1033.04
2018-09-25T11:55:52.868Z,1033.00
2018-09-25T11:56:52.791Z,1032.99
2018-09-25T11:57:52.718Z,1032.97
2018-09-25T11:58:52.648Z,1032.91
2018-09-25T11:59:52.575Z,1032.96
2018-09-25T12:00:52.505Z,1032.92
2018-09-25T12:01:52.437Z,1032.98
2018-09-25T12:02:52.360Z,1032.92
2018-09-25T12:03:52.289Z,1032.97
2018-09-25T12:04:52.214Z,1032.97